Aeroporto :
LOGIN :

Iscrizione | Disclaimer

   EN    FR    IT 

 










Sommario :    VFR   VFR Marginale   IFR   IFR Intensivo   IFR Molto Intensivo
Visibilità : 
Base nubi : 
>= 8 km
>= 3000ft
5 / 8 km
1000 / 3000 ft
1500m / 5 km
500 / 1000 ft
800 / 1500m
200 / 500 ft
< 800m
< 200 ft
Simboli :   Temporali  Nebbia  Neve Forte  Precipitazioni Forti  Vento > 20 kt
SIGMETs :   Varie  Temporali  Ghiacco  Turbolenza  Onda orograficha  Ceneri Vulcaniche






- Altitudine del aeroporto : 3 ft
- Codice IATA : DHR


EHKD - Den Helder De Kooy

ULTIMO METAR :
  • 250404Z AUTO 22005KT 9999 NCD 11/09 Q1011 BLU NOSIG

METARs OBSOLETI :
  • 250355Z AUTO 22006KT 9999 NCD 11/09 Q1011 BLU
  • 250325Z AUTO 22005KT 9999 NCD 10/09 Q1011 BLU
  • 250255Z AUTO 23006KT 9999 NCD 11/09 Q1011 BLU
  • 250225Z AUTO 24007KT 210V270 9999 NCD 11/09 Q1010 BLU
  • 250155Z AUTO 24008KT 200V270 9999 NCD 11/09 Q1010 BLU
  • 250125Z AUTO 24008KT 9999 FEW064 12/09 Q1010 BLU

TAF TAF EHKD
Valido dal 25 a 01 ore il 25 a 13 ore UTC


250027Z 2501/2513 22006KT CAVOK
BECMG 2509/2512 23020G33KT



MetMap, La meteo Aeronautica in un colpo d'occhio ! - Copyright ORBIFLY Dicembre 2007 - Disclaimer

ORBIFLY MET'MAP TEAM :

Programmazione e sviluppo : Alexandra Zaïnal
Concezione : Baudouin d'Aumeries
Supporto tecnico e logistico : Manuel Goepfert
Aiuto : Marc-Olivier Méhu
Aiuto per la traduzione : Arnaldo La Scala

Contatto : metmap@orbifly.com




FONTI E CREDITI :

   NOAA